Time;durP1;ratioP1;P1;durP2;ratioP2;P2;SDS_P1;SDS_P2;PMS_P1;PMS_P2;Temp;Humidity;BMP_temperature;BMP_pressure;BME280_temperature;BME280_humidity;BME280_pressure;Samples;Min_cycle;Max_cycle;Signal;HPM_P1;HPM_P2
2021/04/30 00:01:13;;;;;;;27.70;12.75;;;;;;;6.62;86.61;101080.16;4994999;28;20041;-51
2021/04/30 00:03:39;;;;;;;28.23;13.43;;;;;;;6.55;86.14;101076.97;5013998;28;20046;-52
2021/04/30 00:06:05;;;;;;;22.20;12.80;;;;;;;6.55;86.95;101076.13;5000455;28;20484;-50
2021/04/30 00:08:32;;;;;;;23.85;13.20;;;;;;;6.54;86.62;101077.88;4994754;28;20390;-52
2021/04/30 00:10:58;;;;;;;25.10;14.07;;;;;;;6.65;86.60;101079.19;4992956;28;20050;-48
2021/04/30 00:13:25;;;;;;;29.40;13.75;;;;;;;6.65;86.24;101080.00;4987060;28;20054;-51
2021/04/30 00:15:51;;;;;;;23.85;13.82;;;;;;;6.60;86.25;101077.63;5012985;28;20380;-51
2021/04/30 00:18:18;;;;;;;27.20;13.15;;;;;;;6.63;86.35;101075.78;5013973;28;20080;-49
2021/04/30 00:20:52;;;;;;;25.30;12.52;;;;;;;6.62;86.34;101080.16;4996210;28;20054;-50
2021/04/30 00:23:24;;;;;;;21.65;11.50;;;;;;;6.66;86.29;101076.50;4996578;28;20077;-51
2021/04/30 00:25:50;;;;;;;21.88;12.25;;;;;;;6.57;86.65;101083.00;5011411;28;20485;-49
2021/04/30 00:28:17;;;;;;;31.00;12.40;;;;;;;6.55;86.63;101082.19;4992145;28;20097;-52
2021/04/30 00:30:43;;;;;;;26.35;12.98;;;;;;;6.67;86.46;101088.66;4992839;28;20038;-50
2021/04/30 00:33:09;;;;;;;23.80;12.25;;;;;;;6.58;86.79;101081.22;4994393;28;20054;-47
2021/04/30 00:35:36;;;;;;;26.85;12.07;;;;;;;6.68;87.08;101092.97;4976469;28;20076;-48
2021/04/30 00:38:03;;;;;;;27.92;13.10;;;;;;;6.62;86.71;101095.00;4993001;28;20126;-46
2021/04/30 00:40:29;;;;;;;24.58;12.88;;;;;;;6.59;86.65;101093.38;4976502;28;20413;-50
2021/04/30 00:42:56;;;;;;;29.98;14.00;;;;;;;6.66;86.48;101094.78;4993299;28;20050;-50
2021/04/30 00:45:24;;;;;;;28.05;13.55;;;;;;;6.65;86.55;101098.31;4993733;28;20046;-49
2021/04/30 00:47:51;;;;;;;23.25;12.27;;;;;;;6.67;86.63;101099.09;4994103;28;20056;-50
2021/04/30 00:50:19;;;;;;;23.60;12.50;;;;;;;6.78;86.46;101098.63;4976722;28;20046;-51
2021/04/30 00:52:46;;;;;;;25.77;12.80;;;;;;;6.76;87.12;101110.91;4993681;28;20104;-50
2021/04/30 00:55:14;;;;;;;21.13;11.90;;;;;;;6.80;86.77;101102.00;4976687;28;20038;-52
2021/04/30 00:57:52;;;;;;;24.63;11.80;;;;;;;6.76;86.59;101098.69;5003424;28;20037;-52
2021/04/30 01:00:19;;;;;;;25.33;12.10;;;;;;;6.73;86.99;101103.19;4996299;28;20510;-47
2021/04/30 01:02:45;;;;;;;23.52;12.43;;;;;;;6.77;86.58;101102.16;5013618;28;20050;-50
2021/04/30 01:05:11;;;;;;;25.23;12.18;;;;;;;6.77;87.23;101099.53;4979717;28;20049;-49
2021/04/30 01:07:38;;;;;;;18.52;11.32;;;;;;;6.79;86.68;101102.94;5012780;28;20045;-47
2021/04/30 01:10:05;;;;;;;24.65;13.68;;;;;;;6.80;86.46;101102.00;4995364;28;20050;-46
2021/04/30 01:12:32;;;;;;;19.55;11.15;;;;;;;6.82;86.81;101104.56;5008561;28;20750;-50
2021/04/30 01:14:59;;;;;;;22.35;12.15;;;;;;;6.88;86.73;101107.72;4995581;28;20057;-50
2021/04/30 01:17:25;;;;;;;23.30;11.32;;;;;;;6.83;86.48;101112.34;4995744;28;20481;-50
2021/04/30 01:20:03;;;;;;;25.17;12.27;;;;;;;6.86;86.26;101111.34;5012937;28;20552;-48
2021/04/30 01:22:37;;;;;;;26.70;12.25;;;;;;;6.84;86.42;101110.56;5012971;28;20053;-51
2021/04/30 01:25:05;;;;;;;23.05;11.35;;;;;;;6.87;86.28;101103.44;5011693;28;20065;-48
2021/04/30 01:27:32;;;;;;;23.85;12.00;;;;;;;6.82;87.09;101113.25;4962697;28;20531;-47
2021/04/30 01:29:58;;;;;;;24.92;13.00;;;;;;;6.85;86.56;101113.09;4993336;28;20093;-49
2021/04/30 01:32:25;;;;;;;27.00;12.52;;;;;;;6.84;86.89;101108.78;4959593;28;20042;-52
2021/04/30 01:34:51;;;;;;;24.52;12.80;;;;;;;6.89;86.71;101113.81;4982089;28;20496;-50
2021/04/30 01:37:17;;;;;;;31.63;13.95;;;;;;;6.79;87.24;101115.16;5011886;28;20412;-51
2021/04/30 01:39:44;;;;;;;23.67;12.48;;;;;;;6.84;87.56;101111.41;5011807;28;20072;-53
2021/04/30 01:42:11;;;;;;;21.35;12.32;;;;;;;6.81;87.26;101121.16;5010737;28;20058;-51
2021/04/30 01:44:39;;;;;;;25.90;12.43;;;;;;;6.85;87.47;101123.56;4994890;28;20064;-52
2021/04/30 01:47:06;;;;;;;25.73;14.25;;;;;;;6.88;87.32;101125.19;4994609;28;20112;-49
2021/04/30 01:49:32;;;;;;;27.63;13.70;;;;;;;6.96;86.19;101130.09;5012118;28;20519;-49
2021/04/30 01:51:59;;;;;;;22.65;12.80;;;;;;;6.89;87.32;101130.34;4994794;28;20046;-51
2021/04/30 01:54:26;;;;;;;25.27;13.52;;;;;;;6.86;87.02;101129.66;5011773;28;20046;-47
2021/04/30 01:56:52;;;;;;;26.05;12.65;;;;;;;6.87;86.99;101134.81;4992945;28;20504;-49
2021/04/30 01:59:19;;;;;;;27.65;12.93;;;;;;;6.89;86.90;101135.56;4994990;28;20128;-49
2021/04/30 02:01:45;;;;;;;23.63;13.38;;;;;;;6.80;86.96;101137.75;5012101;28;20057;-52
2021/04/30 02:04:11;;;;;;;25.10;12.80;;;;;;;6.84;86.64;101136.72;5012284;28;20042;-48
2021/04/30 02:06:40;;;;;;;26.98;13.50;;;;;;;6.84;87.19;101142.78;4994272;28;20485;-50
2021/04/30 02:09:08;;;;;;;30.02;15.02;;;;;;;6.83;86.94;101142.84;4990382;28;20105;-46
2021/04/30 02:11:35;;;;;;;26.42;14.20;;;;;;;6.83;87.12;101146.34;4973388;28;20058;-51
2021/04/30 02:14:02;;;;;;;34.38;15.00;;;;;;;6.85;87.48;101139.25;4989798;28;20050;-53
2021/04/30 02:16:30;;;;;;;27.77;14.77;;;;;;;6.93;87.04;101139.75;4994362;28;20046;-50
2021/04/30 02:18:56;;;;;;;26.67;13.75;;;;;;;7.03;86.81;101139.34;5012114;28;20050;-47
2021/04/30 02:21:23;;;;;;;29.17;13.63;;;;;;;7.04;87.30;101139.25;5011425;28;20050;-52
2021/04/30 02:23:49;;;;;;;28.75;13.25;;;;;;;7.05;86.82;101140.13;5010861;28;20057;-50
2021/04/30 02:26:16;;;;;;;27.60;14.25;;;;;;;7.10;86.81;101143.38;4984956;28;20046;-48
2021/04/30 02:28:45;;;;;;;24.02;13.07;;;;;;;7.11;86.34;101135.44;4974588;28;20046;-50
2021/04/30 02:31:13;;;;;;;23.77;12.65;;;;;;;7.11;86.67;101145.91;4975537;28;20061;-51
2021/04/30 02:33:40;;;;;;;26.30;13.18;;;;;;;7.08;85.91;101143.44;4992225;28;20050;-46
2021/04/30 02:36:08;;;;;;;25.65;12.73;;;;;;;7.16;86.41;101142.22;4990302;28;20049;-49
2021/04/30 02:38:34;;;;;;;27.52;11.43;;;;;;;7.17;86.17;101139.56;4992134;28;20781;-52
2021/04/30 02:41:01;;;;;;;23.33;12.32;;;;;;;7.20;85.65;101138.56;4972572;28;20050;-50
2021/04/30 02:43:28;;;;;;;22.30;13.43;;;;;;;7.18;85.24;101153.47;4974747;28;20062;-51
2021/04/30 02:45:56;;;;;;;25.00;12.38;;;;;;;7.21;85.91;101142.88;4990754;28;20054;-51
2021/04/30 02:48:35;;;;;;;28.48;12.82;;;;;;;7.23;86.18;101149.75;4991860;28;20505;-49
2021/04/30 02:51:05;;;;;;;26.30;12.95;;;;;;;7.23;85.62;101152.34;4975770;28;20049;-50
2021/04/30 02:53:32;;;;;;;24.73;12.23;;;;;;;7.24;85.54;101154.06;4976993;28;20046;-50
2021/04/30 02:55:58;;;;;;;24.45;12.43;;;;;;;7.26;85.50;101152.19;4997731;28;20050;-52
2021/04/30 02:58:24;;;;;;;29.13;12.70;;;;;;;7.23;85.80;101154.97;4991278;28;20050;-47
2021/04/30 03:00:51;;;;;;;25.23;12.30;;;;;;;7.26;85.65;101153.97;4991901;28;20049;-53
2021/04/30 03:03:17;;;;;;;22.17;12.05;;;;;;;7.27;85.65;101151.28;4991587;28;20042;-50
2021/04/30 03:05:44;;;;;;;26.23;11.90;;;;;;;7.33;86.08;101157.16;4989806;28;20065;-48
2021/04/30 03:08:11;;;;;;;24.50;12.55;;;;;;;7.31;85.86;101153.75;4974339;28;20406;-49
2021/04/30 03:10:38;;;;;;;23.40;11.45;;;;;;;7.33;85.28;101152.78;4957358;28;20088;-49
2021/04/30 03:13:04;;;;;;;24.65;11.82;;;;;;;7.32;85.36;101158.94;4998553;28;20049;-53
2021/04/30 03:15:30;;;;;;;23.73;11.43;;;;;;;7.30;86.11;101154.69;5011014;28;20041;-48
2021/04/30 03:17:57;;;;;;;26.45;11.73;;;;;;;7.32;85.19;101151.09;5011087;28;20042;-50
2021/04/30 03:20:23;;;;;;;25.35;12.13;;;;;;;7.27;85.50;101153.06;5011148;28;20050;-49
2021/04/30 03:22:50;;;;;;;23.02;11.02;;;;;;;7.30;85.91;101159.94;5010900;28;20144;-52
2021/04/30 03:25:17;;;;;;;22.80;12.00;;;;;;;7.27;85.30;101156.53;4993781;28;20050;-50
2021/04/30 03:27:44;;;;;;;26.98;12.38;;;;;;;7.26;86.15;101156.59;4999243;28;20038;-48
2021/04/30 03:30:11;;;;;;;26.10;12.00;;;;;;;7.23;84.82;101154.13;4991110;28;20405;-51
2021/04/30 03:32:39;;;;;;;22.65;12.20;;;;;;;7.23;85.54;101156.75;4991579;28;20477;-50
2021/04/30 03:35:06;;;;;;;24.58;12.90;;;;;;;7.18;86.29;101156.09;4991675;28;20042;-51
2021/04/30 03:37:32;;;;;;;22.55;12.43;;;;;;;7.22;85.63;101155.88;4977248;28;20038;-50
2021/04/30 03:39:59;;;;;;;20.98;11.98;;;;;;;7.29;85.64;101164.28;4977647;28;20564;-48
2021/04/30 03:42:25;;;;;;;24.40;12.48;;;;;;;7.23;86.35;101162.81;5002206;28;20073;-46
2021/04/30 03:44:51;;;;;;;29.05;12.75;;;;;;;7.20;86.06;101164.72;5013714;28;20416;-51
2021/04/30 03:47:17;;;;;;;19.60;12.90;;;;;;;7.25;85.80;101160.13;4997437;28;20400;-49
2021/04/30 03:49:44;;;;;;;21.90;12.43;;;;;;;7.28;85.18;101163.47;4996811;28;20089;-49
2021/04/30 03:52:10;;;;;;;22.35;12.00;;;;;;;7.35;85.80;101164.03;4996915;28;20058;-49
2021/04/30 03:54:37;;;;;;;29.95;13.60;;;;;;;7.35;85.56;101169.25;5014703;28;20062;-52
2021/04/30 03:57:03;;;;;;;24.98;11.93;;;;;;;7.39;85.72;101175.19;5005307;28;20042;-52
2021/04/30 03:59:29;;;;;;;21.17;11.70;;;;;;;7.39;85.42;101169.94;4995158;28;20050;-53
2021/04/30 04:01:56;;;;;;;21.98;12.07;;;;;;;7.43;85.38;101171.50;4994864;28;20478;-50
2021/04/30 04:04:24;;;;;;;21.08;11.32;;;;;;;7.45;84.44;101174.91;4961534;28;20038;-49
2021/04/30 04:06:50;;;;;;;25.75;12.98;;;;;;;7.45;85.20;101173.13;4994577;28;20058;-51
2021/04/30 04:09:16;;;;;;;19.40;11.65;;;;;;;7.42;85.29;101175.91;4977568;28;20050;-51
2021/04/30 04:11:44;;;;;;;27.52;12.63;;;;;;;7.41;85.31;101165.50;4992577;28;20061;-49
2021/04/30 04:14:10;;;;;;;24.52;12.85;;;;;;;7.42;85.48;101172.44;4978046;28;20501;-49
2021/04/30 04:16:37;;;;;;;25.58;12.80;;;;;;;7.40;85.68;101169.91;4977419;28;20046;-53
2021/04/30 04:19:03;;;;;;;25.13;13.13;;;;;;;7.40;85.15;101166.41;4977404;28;20049;-51
2021/04/30 04:21:29;;;;;;;23.40;13.10;;;;;;;7.38;84.99;101171.72;4994311;28;20054;-50
2021/04/30 04:23:56;;;;;;;22.88;13.27;;;;;;;7.41;84.73;101166.34;4994503;28;20050;-48
2021/04/30 04:26:22;;;;;;;23.40;12.80;;;;;;;7.41;85.26;101166.34;4975317;28;20066;-55
2021/04/30 04:28:48;;;;;;;24.00;13.07;;;;;;;7.40;84.96;101174.25;4977112;28;20125;-49
2021/04/30 04:31:15;;;;;;;25.67;13.93;;;;;;;7.40;85.32;101171.66;4994357;28;20105;-50
2021/04/30 04:33:41;;;;;;;25.63;13.63;;;;;;;7.40;85.82;101169.03;4976301;28;20405;-49
2021/04/30 04:36:08;;;;;;;22.63;13.40;;;;;;;7.40;85.09;101172.53;4993438;28;20047;-47
2021/04/30 04:38:34;;;;;;;26.95;14.10;;;;;;;7.40;85.11;101166.41;4976613;28;20034;-50
2021/04/30 04:41:00;;;;;;;25.02;13.02;;;;;;;7.40;85.56;101163.78;4975216;28;20068;-48
2021/04/30 04:43:27;;;;;;;26.13;14.20;;;;;;;7.44;85.62;101171.44;4993843;28;20390;-52
2021/04/30 04:45:53;;;;;;;29.00;13.25;;;;;;;7.43;85.24;101174.13;4992643;28;20057;-52
2021/04/30 04:48:19;;;;;;;21.92;14.07;;;;;;;7.42;85.72;101185.53;4976942;28;20045;-50
2021/04/30 04:50:45;;;;;;;28.63;14.00;;;;;;;7.44;85.60;101184.53;4993497;28;20052;-53
2021/04/30 04:53:23;;;;;;;31.15;14.50;;;;;;;7.41;85.50;101197.75;4994299;28;20518;-54
2021/04/30 04:56:06;;;;;;;30.15;15.07;;;;;;;7.42;84.74;101201.22;4992018;28;20050;-49
2021/04/30 04:58:32;;;;;;;25.55;15.20;;;;;;;7.43;85.31;101202.91;4993784;28;20058;-52
2021/04/30 05:00:59;;;;;;;25.83;14.05;;;;;;;7.42;85.53;101204.69;4976626;28;20042;-52
2021/04/30 05:03:26;;;;;;;26.08;14.20;;;;;;;7.45;85.60;101212.38;4976380;28;20490;-52
2021/04/30 05:05:54;;;;;;;26.13;14.32;;;;;;;7.50;85.21;101199.09;4975545;28;20061;-54
2021/04/30 05:08:20;;;;;;;25.63;13.88;;;;;;;7.48;86.01;101193.06;4993522;28;20054;-49
2021/04/30 05:10:46;;;;;;;24.10;13.23;;;;;;;7.47;85.21;101194.00;4991422;28;20058;-52
2021/04/30 05:13:12;;;;;;;30.55;14.30;;;;;;;7.52;85.09;101188.56;4993572;28;20510;-53
2021/04/30 05:15:49;;;;;;;25.05;13.40;;;;;;;7.50;85.49;101191.25;4993152;28;20493;-51
2021/04/30 05:18:15;;;;;;;26.63;13.50;;;;;;;7.52;85.66;101189.41;4993361;28;20049;-53
2021/04/30 05:20:41;;;;;;;24.35;13.73;;;;;;;7.56;85.61;101195.34;4993203;28;20057;-52
2021/04/30 05:23:08;;;;;;;27.30;13.75;;;;;;;7.60;85.53;101205.59;4993706;28;20382;-52
2021/04/30 05:25:34;;;;;;;23.40;13.32;;;;;;;7.63;85.45;101209.00;4992550;28;20057;-50
2021/04/30 05:28:00;;;;;;;25.52;13.68;;;;;;;7.66;85.72;101204.44;4992119;28;20050;-53
2021/04/30 05:30:26;;;;;;;27.55;14.20;;;;;;;7.67;85.44;101213.16;4993323;28;20532;-49
2021/04/30 05:32:53;;;;;;;27.25;13.95;;;;;;;7.67;85.19;101207.94;4976285;28;20468;-53
2021/04/30 05:35:19;;;;;;;29.27;14.70;;;;;;;7.72;85.71;101206.78;4992833;28;20053;-52
2021/04/30 05:37:45;;;;;;;30.80;15.05;;;;;;;7.76;85.58;101215.34;4993012;28;20057;-49
2021/04/30 05:40:13;;;;;;;29.05;14.65;;;;;;;7.65;85.46;101213.25;4993470;28;20529;-49
2021/04/30 05:42:39;;;;;;;29.08;14.45;;;;;;;7.62;86.05;101223.84;4973990;28;20417;-51
2021/04/30 05:45:06;;;;;;;26.73;14.50;;;;;;;7.65;86.03;101228.09;4990885;28;20054;-51
2021/04/30 05:47:32;;;;;;;30.75;13.98;;;;;;;7.62;85.81;101226.44;4992609;28;20057;-50
2021/04/30 05:49:58;;;;;;;28.88;14.05;;;;;;;7.68;85.40;101226.19;4992818;28;20523;-52
2021/04/30 05:52:25;;;;;;;31.45;14.75;;;;;;;7.66;85.46;101238.47;4992970;28;20042;-53
2021/04/30 05:54:51;;;;;;;29.17;15.13;;;;;;;7.71;85.63;101231.25;4992838;28;20080;-53
2021/04/30 05:57:18;;;;;;;27.60;14.75;;;;;;;7.73;85.19;101234.69;4973285;28;20101;-52
2021/04/30 05:59:44;;;;;;;27.02;14.18;;;;;;;7.70;84.60;101220.88;4974675;28;20050;-51
2021/04/30 06:02:10;;;;;;;25.40;13.80;;;;;;;7.77;84.61;101224.88;4975550;28;20050;-53
2021/04/30 06:04:38;;;;;;;23.88;13.38;;;;;;;7.77;84.75;101230.13;4992371;28;20137;-50
2021/04/30 06:07:04;;;;;;;27.45;13.43;;;;;;;7.65;85.34;101239.41;4992365;28;20069;-51
2021/04/30 06:09:30;;;;;;;24.63;14.25;;;;;;;7.64;85.25;101236.88;4992448;28;20054;-52
2021/04/30 06:11:57;;;;;;;29.58;14.07;;;;;;;7.57;85.32;101247.63;4990818;28;20070;-54
2021/04/30 06:14:29;;;;;;;25.55;15.15;;;;;;;7.57;85.47;101246.78;4992617;28;20043;-53
2021/04/30 06:17:03;;;;;;;26.95;13.52;;;;;;;7.63;85.60;101245.66;4992331;28;20073;-51
2021/04/30 06:19:30;;;;;;;25.42;13.85;;;;;;;7.70;84.85;101242.69;4975083;28;20042;-49
2021/04/30 06:21:56;;;;;;;24.33;13.95;;;;;;;7.74;85.03;101248.59;4992581;28;20058;-48
2021/04/30 06:24:24;;;;;;;28.40;14.90;;;;;;;7.79;85.29;101252.69;4975122;28;20525;-52
2021/04/30 06:26:51;;;;;;;29.58;14.20;;;;;;;7.84;85.23;101255.13;4990077;28;20049;-49
2021/04/30 06:29:17;;;;;;;22.25;13.13;;;;;;;7.85;85.11;101254.19;4958960;28;20129;-52
2021/04/30 06:31:43;;;;;;;29.83;15.90;;;;;;;7.89;84.50;101250.50;4975046;28;20441;-52
2021/04/30 06:34:10;;;;;;;26.63;13.90;;;;;;;7.87;84.33;101259.38;4974820;28;20046;-50
2021/04/30 06:36:36;;;;;;;25.17;13.38;;;;;;;7.93;84.17;101254.69;4991750;28;20390;-50
2021/04/30 06:39:04;;;;;;;27.48;12.73;;;;;;;7.94;83.95;101258.16;4992032;28;20386;-49
2021/04/30 06:41:30;;;;;;;26.73;13.85;;;;;;;7.94;84.48;101253.75;4972504;28;20054;-53
2021/04/30 06:43:57;;;;;;;26.55;14.20;;;;;;;7.95;84.53;101254.63;4973170;28;20105;-54
2021/04/30 06:46:24;;;;;;;26.65;14.27;;;;;;;7.99;84.16;101256.16;4989231;28;20137;-54
2021/04/30 06:48:57;;;;;;;24.70;13.70;;;;;;;8.04;83.62;101255.94;4975686;28;20042;-52
2021/04/30 06:51:24;;;;;;;23.95;13.52;;;;;;;8.10;83.56;101255.66;4991039;28;20468;-50
2021/04/30 06:53:50;;;;;;;21.58;12.73;;;;;;;8.16;84.06;101257.97;4974523;28;20054;-50
2021/04/30 06:56:16;;;;;;;24.40;13.15;;;;;;;8.19;83.74;101263.03;4989298;28;20039;-52
2021/04/30 06:58:43;;;;;;;29.88;13.73;;;;;;;8.19;83.77;101259.59;4973806;28;20046;-50
2021/04/30 07:01:10;;;;;;;21.13;13.10;;;;;;;8.22;83.64;101257.69;4991578;28;20121;-50
2021/04/30 07:03:40;;;;;;;25.05;13.23;;;;;;;8.26;83.56;101256.59;4974306;28;20387;-51
2021/04/30 07:06:06;;;;;;;26.67;14.38;;;;;;;8.33;82.71;101251.91;4990994;28;20050;-52
2021/04/30 07:08:32;;;;;;;28.10;15.15;;;;;;;8.40;82.83;101255.09;4991400;28;20050;-54
2021/04/30 07:11:00;;;;;;;23.98;14.10;;;;;;;8.42;81.79;101250.59;4989545;28;20064;-53
2021/04/30 07:13:27;;;;;;;24.52;14.55;;;;;;;8.48;81.68;101244.22;4973742;28;20390;-51
2021/04/30 07:15:53;;;;;;;26.42;15.80;;;;;;;8.56;82.14;101257.81;4974294;28;20054;-50
2021/04/30 07:18:19;;;;;;;24.63;14.50;;;;;;;8.61;82.02;101256.63;4958240;28;20056;-54
2021/04/30 07:20:47;;;;;;;22.98;14.10;;;;;;;8.70;81.55;101259.72;4990504;28;20134;-51
2021/04/30 07:23:13;;;;;;;25.23;14.43;;;;;;;8.77;81.73;101258.50;4991581;28;20101;-49
2021/04/30 07:25:39;;;;;;;31.13;15.50;;;;;;;8.79;81.07;101267.13;4972454;28;20050;-48
2021/04/30 07:28:06;;;;;;;24.63;15.48;;;;;;;8.74;79.73;101267.38;4990607;28;20065;-48
2021/04/30 07:30:32;;;;;;;24.58;15.57;;;;;;;8.82;79.52;101264.38;4974237;28;20145;-47
2021/04/30 07:32:59;;;;;;;26.40;16.27;;;;;;;8.87;78.39;101266.75;4974126;28;20054;-48
2021/04/30 07:35:41;;;;;;;31.23;15.88;;;;;;;8.93;77.86;101264.66;4990604;28;20587;-48
2021/04/30 07:38:09;;;;;;;28.75;17.42;;;;;;;9.03;78.72;101259.78;4957937;28;20466;-46
2021/04/30 07:40:40;;;;;;;33.20;17.73;;;;;;;9.02;78.71;101260.69;4973246;28;20057;-48
2021/04/30 07:43:10;;;;;;;30.30;17.20;;;;;;;9.08;80.42;101265.66;4989779;28;20046;-47
2021/04/30 07:45:38;;;;;;;29.17;16.45;;;;;;;9.13;79.24;101268.00;4973852;28;20094;-49
2021/04/30 07:48:07;;;;;;;25.00;15.35;;;;;;;9.14;78.59;101267.94;4989976;28;20493;-47
2021/04/30 07:50:35;;;;;;;26.80;15.90;;;;;;;9.13;79.37;101268.00;4973610;28;20050;-53
2021/04/30 07:53:02;;;;;;;27.85;15.52;;;;;;;9.25;78.52;101264.75;4990962;28;20057;-50
2021/04/30 07:55:28;;;;;;;28.27;15.98;;;;;;;9.24;77.56;101267.44;4957451;28;20056;-49
2021/04/30 07:57:55;;;;;;;23.45;14.82;;;;;;;9.24;77.98;101270.94;4989071;28;20050;-46
2021/04/30 08:00:21;;;;;;;27.77;15.27;;;;;;;9.20;78.17;101272.00;4989642;28;20129;-50
2021/04/30 08:02:48;;;;;;;26.48;15.13;;;;;;;9.24;78.49;101267.44;4990976;28;20050;-47
2021/04/30 08:05:15;;;;;;;27.95;16.60;;;;;;;9.21;78.18;101273.72;4973687;28;20057;-50
2021/04/30 08:07:42;;;;;;;26.80;16.05;;;;;;;9.25;77.95;101262.13;4973406;28;20061;-55
2021/04/30 08:10:10;;;;;;;24.83;15.82;;;;;;;9.20;78.14;101263.28;4990973;28;20047;-54
2021/04/30 08:12:37;;;;;;;24.80;15.82;;;;;;;9.30;78.65;101269.75;4988891;28;20046;-54
2021/04/30 08:15:04;;;;;;;23.80;14.82;;;;;;;9.41;77.88;101274.44;4990970;28;20072;-53
2021/04/30 08:17:31;;;;;;;24.95;16.52;;;;;;;9.45;77.74;101265.47;4990405;28;20228;-54
2021/04/30 08:19:59;;;;;;;25.95;15.23;;;;;;;9.52;76.62;101279.97;4990396;28;20050;-54
2021/04/30 08:22:29;;;;;;;25.85;15.80;;;;;;;9.50;77.51;101273.09;4975894;28;20528;-53
2021/04/30 08:24:56;;;;;;;22.63;15.02;;;;;;;9.51;76.61;101275.63;4977028;28;20502;-54
2021/04/30 08:27:23;;;;;;;25.00;15.32;;;;;;;9.53;76.81;101278.16;4975014;28;20527;-51
2021/04/30 08:29:49;;;;;;;26.33;15.70;;;;;;;9.55;77.69;101278.94;4992183;28;20133;-54
2021/04/30 08:32:17;;;;;;;24.30;16.98;;;;;;;9.69;76.23;101276.41;4994074;28;20046;-53
2021/04/30 08:34:43;;;;;;;27.48;17.30;;;;;;;9.77;76.53;101284.72;4993658;28;20069;-53
2021/04/30 08:37:11;;;;;;;27.73;16.67;;;;;;;9.85;76.08;101276.44;4960188;28;20089;-54
2021/04/30 08:39:39;;;;;;;27.02;15.10;;;;;;;9.99;75.29;101273.03;4993489;28;20057;-52
2021/04/30 08:42:06;;;;;;;27.70;16.80;;;;;;;9.95;74.33;101277.63;4974494;28;20050;-54
2021/04/30 08:44:38;;;;;;;30.13;17.25;;;;;;;9.97;74.69;101283.63;4991369;28;20058;-48
2021/04/30 08:47:06;;;;;;;22.45;14.95;;;;;;;9.97;73.99;101282.78;4981784;28;20054;-54
2021/04/30 08:49:33;;;;;;;23.13;15.80;;;;;;;10.06;74.72;101278.78;4993504;28;20050;-48
2021/04/30 08:51:59;;;;;;;25.75;16.05;;;;;;;10.10;74.35;101282.94;4993091;28;20054;-50
2021/04/30 08:54:26;;;;;;;24.90;16.08;;;;;;;10.20;74.73;101285.88;4960354;28;20081;-49
2021/04/30 08:57:00;;;;;;;25.77;15.82;;;;;;;10.26;74.01;101283.75;4991319;28;20572;-47
2021/04/30 08:59:27;;;;;;;29.77;16.40;;;;;;;10.29;72.19;101286.25;4993130;28;20108;-55
2021/04/30 09:01:53;;;;;;;28.42;15.98;;;;;;;10.26;72.22;101291.66;4993284;28;20509;-47
2021/04/30 09:04:20;;;;;;;24.50;16.33;;;;;;;10.21;71.76;101300.72;4993263;28;20056;-48
2021/04/30 09:06:47;;;;;;;26.05;16.55;;;;;;;10.10;72.27;101303.97;4993001;28;20058;-49
2021/04/30 09:09:16;;;;;;;24.63;15.68;;;;;;;10.30;71.76;101301.06;4975851;28;20057;-52
2021/04/30 09:11:48;;;;;;;24.85;16.40;;;;;;;10.28;71.12;101299.44;4973673;28;20065;-54
2021/04/30 09:14:31;;;;;;;24.83;16.08;;;;;;;10.28;71.05;101295.06;4993287;28;20050;-54
2021/04/30 09:16:58;;;;;;;;;;;;;;;10.36;72.77;101307.81;4975969;28;20046;-50
2021/04/30 09:19:39;;;;;;;25.92;15.23;;;;;;;10.27;72.10;101309.13;4992856;28;19933;-51
2021/04/30 09:22:06;;;;;;;27.58;17.00;;;;;;;10.32;71.34;101301.84;4992781;28;20104;-54
2021/04/30 09:24:33;;;;;;;27.02;16.55;;;;;;;10.45;70.31;101303.78;4992894;28;20084;-51
2021/04/30 09:27:00;;;;;;;25.15;17.98;;;;;;;10.50;70.23;101304.38;4989442;28;20497;-54
2021/04/30 09:29:31;;;;;;;25.85;16.77;;;;;;;10.57;71.05;101303.09;4975334;28;20060;-51
2021/04/30 09:31:59;;;;;;;29.27;17.48;;;;;;;10.71;71.60;101306.69;4992740;28;20049;-50
2021/04/30 09:34:27;;;;;;;24.38;16.25;;;;;;;10.62;69.23;101301.03;4973993;28;20537;-55
2021/04/30 09:36:54;;;;;;;27.75;16.67;;;;;;;10.68;69.21;101304.25;4992328;28;20050;-54
2021/04/30 09:39:20;;;;;;;25.40;16.60;;;;;;;10.72;69.52;101297.88;4992685;28;20051;-52
2021/04/30 09:42:06;;;;;;;27.08;17.88;;;;;;;10.77;70.80;101306.31;4990481;28;20050;-50
2021/04/30 09:44:40;;;;;;;25.70;17.48;;;;;;;10.86;72.19;101303.16;4992414;28;20046;-51
2021/04/30 09:47:20;;;;;;;29.42;18.45;;;;;;;11.01;70.83;101303.19;4992313;28;20514;-54
2021/04/30 09:49:50;;;;;;;27.40;17.17;;;;;;;11.15;69.68;101308.47;4991911;28;20570;-55
2021/04/30 09:52:18;;;;;;;26.98;17.58;;;;;;;11.19;69.05;101307.34;4992215;28;20045;-49
2021/04/30 09:54:44;;;;;;;28.00;17.92;;;;;;;11.06;69.65;101312.50;4992155;28;20053;-50
2021/04/30 09:57:19;;;;;;;24.67;18.10;;;;;;;11.15;69.10;101308.47;4989171;28;20557;-52
2021/04/30 09:59:56;;;;;;;25.98;16.75;;;;;;;11.36;68.91;101310.72;4974950;28;20050;-52
2021/04/30 10:02:24;;;;;;;27.08;17.63;;;;;;;11.42;68.69;101313.84;4992253;28;20054;-51
2021/04/30 10:04:53;;;;;;;26.60;16.48;;;;;;;11.42;67.61;101310.38;4992019;28;20066;-50
2021/04/30 10:07:32;;;;;;;24.17;16.30;;;;;;;11.60;67.63;101308.38;4991891;28;20225;-55
2021/04/30 10:10:05;;;;;;;24.65;15.52;;;;;;;11.62;68.32;101306.53;4991980;28;20077;-54
2021/04/30 10:12:32;;;;;;;27.55;16.77;;;;;;;11.63;68.44;101306.41;4989938;28;20062;-54
2021/04/30 10:14:58;;;;;;;25.15;15.90;;;;;;;11.74;66.04;101307.53;4974704;28;20046;-53
2021/04/30 10:17:25;;;;;;;26.88;15.95;;;;;;;11.70;64.33;101301.63;4990591;28;20046;-50
2021/04/30 10:19:53;;;;;;;21.73;15.60;;;;;;;11.60;65.40;101303.97;4991542;28;20077;-54
2021/04/30 10:22:24;;;;;;;24.15;16.27;;;;;;;11.57;68.03;101312.06;4974076;28;20056;-52
2021/04/30 10:25:14;;;;;;;25.17;18.05;;;;;;;11.39;67.41;101300.03;4977219;28;20054;-50
2021/04/30 10:27:46;;;;;;;23.65;16.83;;;;;;;11.46;68.54;101303.97;4989406;28;20501;-54
2021/04/30 10:30:18;;;;;;;29.67;18.50;;;;;;;11.47;68.44;101306.50;4990214;28;20082;-51
2021/04/30 10:32:54;;;;;;;28.63;17.45;;;;;;;11.67;67.44;101307.91;4991125;28;20052;-56
2021/04/30 10:35:35;;;;;;;28.65;18.10;;;;;;;11.90;67.10;101305.63;4958501;28;20034;-55
2021/04/30 10:38:06;;;;;;;24.58;16.25;;;;;;;11.75;66.33;101296.03;4942489;28;20042;-48
2021/04/30 10:40:33;;;;;;;25.17;16.38;;;;;;;11.80;66.68;101300.06;4978552;28;20050;-56
2021/04/30 10:43:16;;;;;;;26.13;18.08;;;;;;;11.93;67.03;101296.66;4990516;28;20417;-52
2021/04/30 10:45:43;;;;;;;;;;;;;;;12.05;66.18;101295.06;4974569;28;20038;-49
2021/04/30 10:48:09;;;;;;;24.52;15.95;;;;;;;12.18;64.54;101295.97;4990273;28;19921;-48
2021/04/30 10:50:36;;;;;;;23.08;15.38;;;;;;;12.17;63.95;101289.88;4991364;28;20065;-50
2021/04/30 10:53:28;;;;;;;25.00;16.58;;;;;;;12.35;63.69;101286.97;4991536;28;20117;-48
2021/04/30 10:55:55;;;;;;;23.25;15.77;;;;;;;12.34;63.71;101293.19;4972507;28;20053;-48
2021/04/30 10:58:38;;;;;;;22.42;16.08;;;;;;;12.36;63.53;101290.47;4991452;28;20439;-51
2021/04/30 11:01:22;;;;;;;24.33;15.30;;;;;;;12.37;62.54;101292.16;4991473;28;20469;-52
2021/04/30 11:04:07;;;;;;;22.35;14.90;;;;;;;12.39;63.02;101295.53;4974371;28;20438;-49
2021/04/30 11:06:35;;;;;;;24.55;16.00;;;;;;;12.47;63.24;101295.88;4973901;28;20061;-51
2021/04/30 11:09:29;;;;;;;25.10;16.50;;;;;;;12.66;63.49;101296.31;4974055;28;20049;-56
2021/04/30 11:11:58;;;;;;;;;;;;;;;12.58;61.83;101293.34;4972262;28;20046;-50
2021/04/30 11:14:34;;;;;;;22.88;15.60;;;;;;;12.59;63.34;101295.03;4990612;28;19921;-51
2021/04/30 11:17:01;;;;;;;22.85;16.50;;;;;;;12.51;61.54;101287.63;4991291;28;20648;-51
2021/04/30 11:19:31;;;;;;;24.23;15.70;;;;;;;12.69;61.30;101295.28;4991269;28;20046;-52
2021/04/30 11:22:10;;;;;;;23.40;15.27;;;;;;;12.64;62.40;101287.69;4990487;28;20042;-52